Monday, September 01, 2014
18:46 UTC
  |  Log In   |  Register Free
Airport Search:

Ormond Beach Municipal Airport
(KOMN)

FAA data valid effective July 24, 2014 until September 18, 2014 (unless otherwise noted).

 
 
 
 
 
 
 
 
 
 
 
 
 
 

Current Aviation Weather for Ormond Beach Municipal Airport (KOMN)

The most recent METAR observation for KOMN was updated at: 1750 UTC
METAR Summary (Translated METAR)
KOMN
011750Z 10010KT 10SM SCT030 32/23 A3011
KDAB
(7.8 nm SE from KOMN)
011753Z 09009KT 10SM FEW040 FEW150 FEW250 32/21 A3011 RMK AO2 SLP195 T03220206 10333 20250 58010
TAF Summary (Translated TAF)
KDAB
(7.8 nm SE from KOMN)
011746Z 0118/0218 11008KT P6SM VCSH SCT040 FM020000 12007KT P6SM FEW040 SCT250 FM020200 00000KT P6SM FEW040
  Airport Weather Conditions for KOMN

 Current Weather at OMN
90° F
Partly Cloudy
East winds at 12.7 mph
OMN NOAA Radar

Pressure: 30.12 in
Humidity: 84%
Wind: East at 12.7 MPH (11 KT)
Dew Point: 84.2°F
Visibility: 10.00 mi


Airport Weather Forecast for KOMN

Translated METAR and TAF for KOMN
Translated METAR for KOMN (1840 UTC 01 September 2014)
found at http://aviationweather.gov/adds/metars/
 
METAR text: KOMN 011750Z 10010KT 10SM SCT030 32/23 A3011
Conditions at: KOMN (ORMOND BEACH VOR, FL, US) observed 1750 UTC 01 September 2014
Temperature: 32.0°C (90°F)
Dewpoint: 23.0°C (73°F) [RH = 59%]
Pressure (altimeter): 30.11 inches Hg (1019.7 mb)
Winds: from the E (100 degrees) at 12 MPH (10 knots; 5.2 m/s)
Visibility: 10 or more miles (16+ km)
Ceiling: at least 12,000 feet AGL
Clouds: scattered clouds at 3000 feet AGL
Weather: no significant weather observed at this time
Translated TAF for KOMN

There is no translated TAF available for this airport

Find All Airport Services Find A Hotel Find A Rental Car Find A Golf Course Find A Restaurant $100 Hamburger



FBO's on the Field
FBO Company Facility Photos Services Transportation Aviation Fuel Prices: Prices include tax
Catering Weather Repair Courtesy Rental Type 100LL JetA JetA+ MOGAS 8087
 
Sunrise Aviation

Currently rated 1 by 2 people
FS:Shell
Last Updated: Aug-14
Login to update fuel prices
SS:
Contact Sunrise AviationMore FBO Information
 
Add another FBO Facility Photos Catering Weather Repair Courtesy Rental Type 100LL JetA JetA+ MOGAS 8087
Services Transportation Aviation Fuel Prices: Prices include tax


GlobalAir.com Airport Resource Center model-print
model-print
model-print
model-print